createdAt,value
2023-04-27T00:00:33.000Z,0
2023-04-27T00:01:49.000Z,0
2023-04-27T00:03:05.000Z,0
2023-04-27T00:04:21.000Z,0
2023-04-27T00:05:38.000Z,0
2023-04-27T00:06:54.477Z,0
2023-04-27T00:08:10.796Z,0
2023-04-27T00:09:27.000Z,0
2023-04-27T00:10:43.000Z,0
2023-04-27T00:11:59.000Z,0
2023-04-27T00:13:14.000Z,0
2023-04-27T00:14:31.000Z,0
2023-04-27T00:15:47.000Z,0
2023-04-27T00:17:03.000Z,0
2023-04-27T00:18:20.165Z,0
2023-04-27T00:19:36.000Z,0
2023-04-27T00:20:52.000Z,0
2023-04-27T00:22:09.000Z,0
2023-04-27T00:23:25.000Z,0
2023-04-27T00:24:41.000Z,0
2023-04-27T00:25:57.000Z,0
2023-04-27T00:27:14.000Z,0
2023-04-27T00:28:30.000Z,0
2023-04-27T00:29:45.000Z,0
2023-04-27T00:31:02.000Z,0
2023-04-27T00:32:18.000Z,0
2023-04-27T00:33:33.700Z,0
2023-04-27T00:34:50.000Z,0
2023-04-27T00:36:06.000Z,0
2023-04-27T00:37:22.000Z,0
2023-04-27T00:38:38.000Z,0
2023-04-27T00:39:55.000Z,0
2023-04-27T00:41:11.000Z,0
2023-04-27T00:42:27.000Z,0
2023-04-27T00:43:44.000Z,0
2023-04-27T00:45:00.000Z,0
2023-04-27T00:46:16.000Z,0
2023-04-27T00:47:32.000Z,0
2023-04-27T00:48:49.000Z,0
2023-04-27T00:50:04.000Z,0
2023-04-27T00:51:20.000Z,0
2023-04-27T00:52:37.000Z,0
2023-04-27T00:53:53.000Z,0
2023-04-27T00:55:09.000Z,0
2023-04-27T00:56:26.000Z,0
2023-04-27T00:57:42.000Z,0
2023-04-27T00:58:58.614Z,0
2023-04-27T01:00:14.000Z,0
2023-04-27T01:01:31.214Z,0
2023-04-27T01:02:47.000Z,0
2023-04-27T01:04:03.796Z,0
2023-04-27T01:05:20.000Z,0
2023-04-27T01:06:35.000Z,0
2023-04-27T01:07:51.697Z,0
2023-04-27T01:09:08.000Z,0
2023-04-27T01:10:24.293Z,0
2023-04-27T01:11:40.575Z,0
2023-04-27T01:12:56.000Z,0
2023-04-27T01:14:13.000Z,0
2023-04-27T01:15:29.000Z,0
2023-04-27T01:16:45.723Z,0
2023-04-27T01:18:02.000Z,0
2023-04-27T01:19:18.000Z,0
2023-04-27T01:20:34.000Z,0
2023-04-27T01:21:50.000Z,0
2023-04-27T01:23:06.000Z,0
2023-04-27T01:24:22.538Z,0
2023-04-27T01:25:38.000Z,0
2023-04-27T01:26:55.000Z,0
2023-04-27T01:28:11.000Z,0
2023-04-27T01:29:27.000Z,0
2023-04-27T01:30:43.978Z,0
2023-04-27T01:32:00.000Z,0
2023-04-27T01:33:16.000Z,0
2023-04-27T01:34:32.000Z,0
2023-04-27T01:35:49.000Z,0
2023-04-27T01:37:05.000Z,0
2023-04-27T01:38:21.000Z,0
2023-04-27T01:39:37.000Z,0
2023-04-27T01:40:53.000Z,0
2023-04-27T01:42:09.000Z,0
2023-04-27T01:43:25.000Z,0
2023-04-27T01:44:42.000Z,0
2023-04-27T01:45:58.000Z,0
2023-04-27T01:47:14.000Z,0
2023-04-27T01:48:31.000Z,0
2023-04-27T01:49:47.000Z,0
2023-04-27T01:51:03.000Z,0
2023-04-27T01:52:20.000Z,0
2023-04-27T01:53:36.000Z,0
2023-04-27T01:54:52.000Z,0
2023-04-27T01:56:07.000Z,0
2023-04-27T01:57:24.000Z,0
2023-04-27T01:58:40.000Z,0
2023-04-27T01:59:56.000Z,0
2023-04-27T02:01:13.000Z,0
2023-04-27T02:02:29.394Z,0
2023-04-27T02:03:45.000Z,0
2023-04-27T02:05:01.973Z,0
2023-04-27T02:06:18.258Z,0
2023-04-27T02:07:34.000Z,0
2023-04-27T02:08:50.000Z,0
2023-04-27T02:10:07.000Z,0
2023-04-27T02:11:23.000Z,0
2023-04-27T02:12:38.000Z,0
2023-04-27T02:13:55.000Z,0
2023-04-27T02:15:11.000Z,0
2023-04-27T02:16:27.000Z,0
2023-04-27T02:17:43.920Z,0
2023-04-27T02:19:00.000Z,0
2023-04-27T02:20:16.000Z,0
2023-04-27T02:21:32.000Z,0
2023-04-27T02:22:49.000Z,0
2023-04-27T02:24:05.000Z,0
2023-04-27T02:25:21.677Z,0
2023-04-27T02:26:38.000Z,0
2023-04-27T02:27:54.255Z,0
2023-04-27T02:29:09.000Z,0
2023-04-27T02:30:25.000Z,0
2023-04-27T02:31:42.000Z,0
2023-04-27T02:32:58.000Z,0
2023-04-27T02:34:14.000Z,0
2023-04-27T02:35:31.000Z,0
2023-04-27T02:36:47.000Z,0
2023-04-27T02:38:03.000Z,0
2023-04-27T02:39:19.000Z,0
2023-04-27T02:40:36.211Z,0
2023-04-27T02:41:52.000Z,0
2023-04-27T02:43:08.000Z,0
2023-04-27T02:44:25.000Z,0
2023-04-27T02:45:41.000Z,0
2023-04-27T02:46:56.000Z,0
2023-04-27T02:48:13.000Z,0
2023-04-27T02:49:29.000Z,0
2023-04-27T02:50:45.000Z,0
2023-04-27T02:52:01.000Z,0
2023-04-27T02:53:18.000Z,0
2023-04-27T02:54:34.000Z,0
2023-04-27T02:55:50.762Z,0
2023-04-27T02:57:07.000Z,0
2023-04-27T02:58:23.341Z,0
2023-04-27T02:59:39.000Z,0
2023-04-27T03:00:55.000Z,0
2023-04-27T03:02:12.000Z,0
2023-04-27T03:03:28.000Z,0
2023-04-27T03:04:43.000Z,0
2023-04-27T03:06:00.000Z,0
2023-04-27T03:07:16.000Z,0
2023-04-27T03:08:32.000Z,0
2023-04-27T03:09:49.000Z,0
2023-04-27T03:11:05.307Z,0
2023-04-27T03:12:21.000Z,0
2023-04-27T03:13:37.000Z,1
2023-04-27T03:14:54.000Z,1
2023-04-27T03:16:10.000Z,1
2023-04-27T03:17:26.000Z,1
2023-04-27T03:18:42.000Z,2
2023-04-27T03:19:59.000Z,2
2023-04-27T03:21:15.298Z,1
2023-04-27T03:22:30.000Z,1
2023-04-27T03:23:46.000Z,2
2023-04-27T03:25:03.041Z,1
2023-04-27T03:26:19.000Z,4
2023-04-27T03:27:35.528Z,3
2023-04-27T03:28:51.000Z,6
2023-04-27T03:30:08.000Z,6
2023-04-27T03:31:24.000Z,7
2023-04-27T03:32:40.000Z,4
2023-04-27T03:33:56.000Z,7
2023-04-27T03:35:12.000Z,11
2023-04-27T03:36:29.000Z,8
2023-04-27T03:37:45.000Z,9
2023-04-27T03:39:01.000Z,11
2023-04-27T03:40:16.000Z,13
2023-04-27T03:41:33.000Z,17
2023-04-27T03:42:49.000Z,19
2023-04-27T03:44:05.000Z,22
2023-04-27T03:45:21.000Z,25
2023-04-27T03:46:38.000Z,35
2023-04-27T03:47:54.000Z,46
2023-04-27T03:49:10.000Z,55
2023-04-27T03:50:26.000Z,72
2023-04-27T03:51:43.000Z,82
2023-04-27T03:52:59.000Z,96
2023-04-27T03:54:15.000Z,108
2023-04-27T03:55:31.000Z,118
2023-04-27T03:56:48.000Z,129
2023-04-27T03:58:03.000Z,147
2023-04-27T03:59:19.000Z,157
2023-04-27T04:00:35.000Z,173
2023-04-27T04:01:52.000Z,190
2023-04-27T04:03:08.000Z,207
2023-04-27T04:04:24.000Z,228
2023-04-27T04:05:40.000Z,252
2023-04-27T04:06:57.000Z,274
2023-04-27T04:08:13.000Z,288
2023-04-27T04:09:29.000Z,302
2023-04-27T04:10:45.000Z,319
2023-04-27T04:12:01.000Z,333
2023-04-27T04:13:18.000Z,353
2023-04-27T04:14:34.440Z,365
2023-04-27T04:15:49.000Z,378
2023-04-27T04:17:05.000Z,395
2023-04-27T04:18:22.000Z,406
2023-04-27T04:19:38.000Z,422
2023-04-27T04:20:54.000Z,420
2023-04-27T04:22:10.000Z,419
2023-04-27T04:23:27.000Z,405
2023-04-27T04:24:43.000Z,403
2023-04-27T04:25:59.000Z,414
2023-04-27T04:27:15.000Z,464
2023-04-27T04:28:32.000Z,554
2023-04-27T04:29:48.000Z,521
2023-04-27T04:31:04.000Z,492
2023-04-27T04:32:20.000Z,504
2023-04-27T04:33:36.000Z,509
2023-04-27T04:34:52.329Z,481
2023-04-27T04:36:08.000Z,491
2023-04-27T04:37:24.000Z,518
2023-04-27T04:38:41.000Z,541
2023-04-27T04:39:57.000Z,569
2023-04-27T04:41:13.000Z,597
2023-04-27T04:42:29.000Z,609
2023-04-27T04:43:46.000Z,642
2023-04-27T04:45:02.000Z,646
2023-04-27T04:46:18.000Z,659
2023-04-27T04:47:34.000Z,713
2023-04-27T04:48:50.000Z,794
2023-04-27T04:50:06.227Z,821
2023-04-27T04:51:22.000Z,877
2023-04-27T04:52:38.000Z,873
2023-04-27T04:53:54.000Z,861
2023-04-27T04:55:11.180Z,891
2023-04-27T04:56:27.000Z,962
2023-04-27T04:57:43.000Z,1013
2023-04-27T04:58:59.000Z,1050
2023-04-27T05:00:16.140Z,1112
2023-04-27T05:01:32.000Z,1177
2023-04-27T05:02:48.000Z,1221
2023-04-27T05:04:04.000Z,1283
2023-04-27T05:05:20.000Z,1334
2023-04-27T05:06:36.000Z,1398
2023-04-27T05:07:52.000Z,1490
2023-04-27T05:09:08.000Z,1532
2023-04-27T05:10:25.000Z,1555
2023-04-27T05:11:41.000Z,1543
2023-04-27T05:12:57.000Z,1558
2023-04-27T05:14:13.000Z,1474
2023-04-27T05:15:30.000Z,1529
2023-04-27T05:16:46.000Z,1454
2023-04-27T05:18:02.000Z,1446
2023-04-27T05:19:18.000Z,1487
2023-04-27T05:20:35.002Z,1490
2023-04-27T05:21:50.000Z,1408
2023-04-27T05:23:06.000Z,1378
2023-04-27T05:24:22.000Z,1356
2023-04-27T05:25:39.000Z,1362
2023-04-27T05:26:55.000Z,1323
2023-04-27T05:28:11.000Z,1287
2023-04-27T05:29:27.000Z,1279
2023-04-27T05:30:43.000Z,1281
2023-04-27T05:32:00.000Z,1269
2023-04-27T05:33:16.432Z,1233
2023-04-27T05:34:32.654Z,1242
2023-04-27T05:35:48.000Z,1263
2023-04-27T05:37:05.000Z,1308
2023-04-27T05:38:20.000Z,1373
2023-04-27T05:39:36.000Z,1398
2023-04-27T05:40:52.000Z,1413
2023-04-27T05:42:09.000Z,1492
2023-04-27T05:43:25.000Z,1571
2023-04-27T05:44:41.000Z,1623
2023-04-27T05:45:57.000Z,1743
2023-04-27T05:47:14.000Z,1787
2023-04-27T05:48:30.000Z,1772
2023-04-27T05:49:46.000Z,1815
2023-04-27T05:51:02.000Z,1856
2023-04-27T05:52:19.000Z,1746
2023-04-27T05:53:35.000Z,1613
2023-04-27T05:54:50.000Z,1634
2023-04-27T05:56:06.000Z,1640
2023-04-27T05:57:23.000Z,1641
2023-04-27T05:58:39.000Z,1631
2023-04-27T05:59:55.000Z,1638
2023-04-27T06:01:11.715Z,1697
2023-04-27T06:02:27.000Z,1750
2023-04-27T06:03:44.000Z,1801
2023-04-27T06:05:00.000Z,1899
2023-04-27T06:06:16.696Z,2076
2023-04-27T06:07:32.000Z,2200
2023-04-27T06:08:49.000Z,2154
2023-04-27T06:10:05.000Z,2221
2023-04-27T06:11:20.000Z,2416
2023-04-27T06:12:36.000Z,2481
2023-04-27T06:13:53.128Z,2463
2023-04-27T06:15:09.000Z,2477
2023-04-27T06:16:25.628Z,2465
2023-04-27T06:17:41.000Z,2427
2023-04-27T06:18:58.000Z,2418
2023-04-27T06:20:14.000Z,2418
2023-04-27T06:21:30.000Z,2380
2023-04-27T06:22:46.000Z,2433
2023-04-27T06:24:03.000Z,2522
2023-04-27T06:25:19.000Z,2569
2023-04-27T06:26:35.000Z,2568
2023-04-27T06:27:50.000Z,2692
2023-04-27T06:29:07.034Z,2673
2023-04-27T06:30:23.000Z,2759
2023-04-27T06:31:39.000Z,2741
2023-04-27T06:32:55.000Z,2681
2023-04-27T06:34:12.000Z,2631
2023-04-27T06:35:28.000Z,2635
2023-04-27T06:36:44.000Z,2671
2023-04-27T06:38:00.000Z,2651
2023-04-27T06:39:16.000Z,2715
2023-04-27T06:40:33.000Z,2679
2023-04-27T06:41:49.000Z,2698
2023-04-27T06:43:05.000Z,2690
2023-04-27T06:44:20.000Z,2688
2023-04-27T06:45:37.000Z,2770
2023-04-27T06:46:53.000Z,2822
2023-04-27T06:48:09.000Z,2827
2023-04-27T06:49:25.000Z,2930
2023-04-27T06:50:42.000Z,2718
2023-04-27T06:51:58.000Z,2873
2023-04-27T06:53:14.000Z,2873
2023-04-27T06:54:30.000Z,2905
2023-04-27T06:55:47.000Z,2973
2023-04-27T06:57:03.000Z,2898
2023-04-27T06:58:19.000Z,2940
2023-04-27T06:59:35.000Z,2927
2023-04-27T07:00:51.000Z,2737
2023-04-27T07:02:07.000Z,2828
2023-04-27T07:03:23.000Z,2884
2023-04-27T07:04:39.000Z,2916
2023-04-27T07:05:56.000Z,2922
2023-04-27T07:07:12.269Z,2810
2023-04-27T07:08:28.000Z,2724
2023-04-27T07:09:44.000Z,2594
2023-04-27T07:11:01.000Z,2718
2023-04-27T07:12:17.000Z,2929
2023-04-27T07:13:33.000Z,3011
2023-04-27T07:14:49.000Z,2996
2023-04-27T07:16:05.000Z,3148
2023-04-27T07:17:22.000Z,3286
2023-04-27T07:18:37.000Z,3417
2023-04-27T07:19:53.664Z,3448
2023-04-27T07:21:09.000Z,3383
2023-04-27T07:22:26.157Z,3308
2023-04-27T07:23:42.000Z,3285
2023-04-27T07:24:58.000Z,3334
2023-04-27T07:26:14.000Z,3438
2023-04-27T07:27:31.000Z,3437
2023-04-27T07:28:47.000Z,3263
2023-04-27T07:30:03.000Z,3117
2023-04-27T07:31:19.000Z,3300
2023-04-27T07:32:36.000Z,3564
2023-04-27T07:33:52.000Z,3858
2023-04-27T07:35:07.000Z,3718
2023-04-27T07:36:23.000Z,3584
2023-04-27T07:37:40.000Z,3523
2023-04-27T07:38:56.000Z,3691
2023-04-27T07:40:12.000Z,3902
2023-04-27T07:41:28.000Z,3777
2023-04-27T07:42:45.000Z,3731
2023-04-27T07:44:01.000Z,3722
2023-04-27T07:45:17.000Z,3742
2023-04-27T07:46:33.000Z,3803
2023-04-27T07:47:49.000Z,3846
2023-04-27T07:49:06.000Z,3829
2023-04-27T07:50:22.000Z,3618
2023-04-27T07:51:37.000Z,3719
2023-04-27T07:52:53.000Z,3834
2023-04-27T07:54:10.000Z,3899
2023-04-27T07:55:26.402Z,3825
2023-04-27T07:56:42.000Z,3653
2023-04-27T07:57:58.000Z,4229
2023-04-27T07:59:15.000Z,3819
2023-04-27T08:00:31.000Z,3901
2023-04-27T08:01:47.000Z,3824
2023-04-27T08:03:03.000Z,3906
2023-04-27T08:04:20.000Z,3921
2023-04-27T08:05:36.000Z,3654
2023-04-27T08:06:52.000Z,4352
2023-04-27T08:08:07.000Z,4070
2023-04-27T08:09:24.000Z,4102
2023-04-27T08:10:40.000Z,3969
2023-04-27T08:11:56.000Z,4100
2023-04-27T08:13:12.782Z,4073
2023-04-27T08:14:29.000Z,4047
2023-04-27T08:15:45.000Z,4011
2023-04-27T08:17:01.000Z,3911
2023-04-27T08:18:17.740Z,3884
2023-04-27T08:19:34.000Z,3732
2023-04-27T08:20:50.000Z,3702
2023-04-27T08:22:06.000Z,3755
2023-04-27T08:23:22.000Z,3813
2023-04-27T08:24:37.000Z,3926
2023-04-27T08:25:54.208Z,3676
2023-04-27T08:27:10.000Z,3742
2023-04-27T08:28:26.000Z,3805
2023-04-27T08:29:42.000Z,3830
2023-04-27T08:30:59.000Z,3768
2023-04-27T08:32:15.000Z,3641
2023-04-27T08:33:31.000Z,3804
2023-04-27T08:34:47.000Z,3633
2023-04-27T08:36:04.000Z,4450
2023-04-27T08:37:20.344Z,4087
2023-04-27T08:38:36.000Z,3715
2023-04-27T08:39:52.830Z,4159
2023-04-27T08:41:08.000Z,3823
2023-04-27T08:42:24.000Z,3816
2023-04-27T08:43:40.000Z,3712
2023-04-27T08:44:56.000Z,3485
2023-04-27T08:46:13.044Z,3275
2023-04-27T08:47:29.000Z,3810
2023-04-27T08:48:45.000Z,4245
2023-04-27T08:50:01.000Z,3655
2023-04-27T08:51:18.000Z,3850
2023-04-27T08:52:34.000Z,3543
2023-04-27T08:53:50.000Z,3534
2023-04-27T08:55:06.000Z,3482
2023-04-27T08:56:22.000Z,3159
2023-04-27T08:57:38.000Z,3813
2023-04-27T08:58:54.000Z,4178
2023-04-27T09:00:10.000Z,3336
2023-04-27T09:01:26.942Z,3230
2023-04-27T09:02:43.000Z,3358
2023-04-27T09:03:58.000Z,3973
2023-04-27T09:05:14.000Z,3950
2023-04-27T09:06:30.000Z,3900
2023-04-27T09:07:47.000Z,3791
2023-04-27T09:09:03.000Z,3568
2023-04-27T09:10:19.000Z,3580
2023-04-27T09:11:35.891Z,3626
2023-04-27T09:12:52.000Z,3697
2023-04-27T09:14:08.000Z,3849
2023-04-27T09:15:24.000Z,3958
2023-04-27T09:16:40.000Z,3867
2023-04-27T09:17:57.000Z,3792
2023-04-27T09:19:13.000Z,4028
2023-04-27T09:20:28.000Z,4840
2023-04-27T09:21:44.821Z,4103
2023-04-27T09:23:01.000Z,3544
2023-04-27T09:24:17.000Z,4191
2023-04-27T09:25:33.000Z,3884
2023-04-27T09:26:49.774Z,4227
2023-04-27T09:28:06.000Z,4650
2023-04-27T09:29:22.000Z,4727
2023-04-27T09:30:38.000Z,4966
2023-04-27T09:31:54.711Z,3983
2023-04-27T09:33:11.000Z,3932
2023-04-27T09:34:27.000Z,4217
2023-04-27T09:35:43.444Z,4454
2023-04-27T09:36:58.000Z,4466
2023-04-27T09:38:14.000Z,4545
2023-04-27T09:39:31.181Z,4758
2023-04-27T09:40:47.000Z,5236
2023-04-27T09:42:03.000Z,3898
2023-04-27T09:43:19.000Z,4681
2023-04-27T09:44:36.000Z,4177
2023-04-27T09:45:52.000Z,4021
2023-04-27T09:47:08.000Z,4058
2023-04-27T09:48:24.852Z,3374
2023-04-27T09:49:41.097Z,4334
2023-04-27T09:50:57.000Z,5137
2023-04-27T09:52:13.000Z,4561
2023-04-27T09:53:28.000Z,4394
2023-04-27T09:54:45.000Z,4349
2023-04-27T09:56:01.000Z,4596
2023-04-27T09:57:17.000Z,4562
2023-04-27T09:58:33.000Z,4423
2023-04-27T09:59:50.000Z,4578
2023-04-27T10:01:06.000Z,4480
2023-04-27T10:02:22.511Z,4363
2023-04-27T10:03:38.000Z,4259
2023-04-27T10:04:55.000Z,4347
2023-04-27T10:06:11.000Z,4377
2023-04-27T10:07:27.000Z,4315
2023-04-27T10:08:43.000Z,4171
2023-04-27T10:09:58.000Z,4157
2023-04-27T10:11:15.000Z,4224
2023-04-27T10:12:31.000Z,4328
2023-04-27T10:13:47.000Z,4559
2023-04-27T10:15:03.000Z,4312
2023-04-27T10:16:20.000Z,4028
2023-04-27T10:17:36.000Z,4480
2023-04-27T10:18:52.000Z,4577
2023-04-27T10:20:08.000Z,4918
2023-04-27T10:21:25.000Z,5087
2023-04-27T10:22:41.000Z,4830
2023-04-27T10:23:57.000Z,4795
2023-04-27T10:25:13.000Z,4667
2023-04-27T10:26:29.000Z,4409
2023-04-27T10:27:45.341Z,4181
2023-04-27T10:29:01.000Z,3549
2023-04-27T10:30:17.000Z,4347
2023-04-27T10:31:34.000Z,3646
2023-04-27T10:32:50.000Z,3537
2023-04-27T10:34:06.000Z,3613
2023-04-27T10:35:22.758Z,3639
2023-04-27T10:36:39.000Z,3542
2023-04-27T10:37:55.000Z,3521
2023-04-27T10:39:11.484Z,3196
2023-04-27T10:40:27.000Z,3144
2023-04-27T10:41:43.000Z,3198
2023-04-27T10:42:59.000Z,3484
2023-04-27T10:44:15.000Z,3607
2023-04-27T10:45:31.000Z,3759
2023-04-27T10:46:47.000Z,3728
2023-04-27T10:48:04.000Z,3704
2023-04-27T10:49:20.000Z,3804
2023-04-27T10:50:36.000Z,4009
2023-04-27T10:51:52.000Z,4403
2023-04-27T10:53:09.000Z,4766
2023-04-27T10:54:25.000Z,4932
2023-04-27T10:55:41.000Z,5065
2023-04-27T10:56:57.000Z,5187
2023-04-27T10:58:14.000Z,5136
2023-04-27T10:59:29.000Z,5234
2023-04-27T11:00:45.000Z,5389
2023-04-27T11:02:01.000Z,5346
2023-04-27T11:03:18.000Z,4719
2023-04-27T11:04:34.000Z,5190
2023-04-27T11:05:50.539Z,4571
2023-04-27T11:07:06.000Z,4889
2023-04-27T11:08:23.000Z,3726
2023-04-27T11:09:39.000Z,4467
2023-04-27T11:10:55.522Z,4038
2023-04-27T11:12:11.000Z,4702
2023-04-27T11:13:28.000Z,4103
2023-04-27T11:14:44.000Z,4073
2023-04-27T11:15:59.000Z,4058
2023-04-27T11:17:15.000Z,4053
2023-04-27T11:18:31.000Z,3942
2023-04-27T11:19:48.000Z,4136
2023-04-27T11:21:04.436Z,4279
2023-04-27T11:22:20.000Z,4450
2023-04-27T11:23:36.000Z,4597
2023-04-27T11:24:53.000Z,4619
2023-04-27T11:26:09.000Z,4382
2023-04-27T11:27:25.000Z,4225
2023-04-27T11:28:41.862Z,3913
2023-04-27T11:29:58.000Z,4506
2023-04-27T11:31:14.000Z,5572
2023-04-27T11:32:29.000Z,4953
2023-04-27T11:33:45.000Z,4852
2023-04-27T11:35:02.000Z,4705
2023-04-27T11:36:18.000Z,4477
2023-04-27T11:37:34.000Z,4112
2023-04-27T11:38:50.000Z,3675
2023-04-27T11:40:07.000Z,3416
2023-04-27T11:41:23.000Z,3533
2023-04-27T11:42:39.000Z,3846
2023-04-27T11:43:55.000Z,4518
2023-04-27T11:45:12.000Z,4576
2023-04-27T11:46:28.000Z,4795
2023-04-27T11:47:44.000Z,4950
2023-04-27T11:48:59.000Z,5063
2023-04-27T11:50:15.000Z,5268
2023-04-27T11:51:32.000Z,5577
2023-04-27T11:52:48.000Z,5682
2023-04-27T11:54:04.000Z,5962
2023-04-27T11:55:20.000Z,5857
2023-04-27T11:56:37.000Z,5771
2023-04-27T11:57:53.000Z,4654
2023-04-27T11:59:09.645Z,5612
2023-04-27T12:00:25.000Z,5071
2023-04-27T12:01:42.000Z,4198
2023-04-27T12:02:58.000Z,4347
2023-04-27T12:04:14.000Z,4376
2023-04-27T12:05:29.000Z,4895
2023-04-27T12:06:46.000Z,3759
2023-04-27T12:08:02.000Z,4258
2023-04-27T12:09:18.000Z,4754
2023-04-27T12:10:34.000Z,3964
2023-04-27T12:11:51.000Z,3892
2023-04-27T12:13:07.000Z,4202
2023-04-27T12:14:23.530Z,4317
2023-04-27T12:15:39.000Z,4534
2023-04-27T12:16:56.000Z,4204
2023-04-27T12:18:12.000Z,3954
2023-04-27T12:19:28.000Z,3851
2023-04-27T12:20:44.000Z,3758
2023-04-27T12:22:00.000Z,3930
2023-04-27T12:23:16.000Z,4395
2023-04-27T12:24:32.472Z,4732
2023-04-27T12:25:48.000Z,5030
2023-04-27T12:27:04.000Z,4841
2023-04-27T12:28:21.000Z,4734
2023-04-27T12:29:37.000Z,5510
2023-04-27T12:30:53.000Z,5472
2023-04-27T12:32:09.000Z,5530
2023-04-27T12:33:26.000Z,5367
2023-04-27T12:34:42.000Z,5674
2023-04-27T12:35:58.000Z,5871
2023-04-27T12:37:14.861Z,5317
2023-04-27T12:38:30.000Z,6661
2023-04-27T12:39:46.000Z,6026
2023-04-27T12:41:02.000Z,5242
2023-04-27T12:42:18.000Z,4638
2023-04-27T12:43:35.000Z,5350
2023-04-27T12:44:51.000Z,4808
2023-04-27T12:46:07.000Z,4958
2023-04-27T12:47:23.000Z,5078
2023-04-27T12:48:40.000Z,4943
2023-04-27T12:49:56.000Z,5386
2023-04-27T12:51:12.000Z,5647
2023-04-27T12:52:28.000Z,5699
2023-04-27T12:53:45.000Z,5756
2023-04-27T12:55:00.000Z,5685
2023-04-27T12:56:16.000Z,5765
2023-04-27T12:57:32.000Z,5828
2023-04-27T12:58:48.000Z,5882
2023-04-27T13:00:05.000Z,6050
2023-04-27T13:01:21.000Z,6072
2023-04-27T13:02:37.000Z,7567
2023-04-27T13:03:53.000Z,7098
2023-04-27T13:05:10.000Z,6893
2023-04-27T13:06:26.000Z,6687
2023-04-27T13:07:42.000Z,6491
2023-04-27T13:08:58.000Z,6415
2023-04-27T13:10:15.000Z,6594
2023-04-27T13:11:30.000Z,6242
2023-04-27T13:12:46.000Z,5937
2023-04-27T13:14:02.000Z,5766
2023-04-27T13:15:19.000Z,5660
2023-04-27T13:16:35.000Z,5632
2023-04-27T13:17:51.000Z,5638
2023-04-27T13:19:06.000Z,5934
2023-04-27T13:20:23.000Z,5770
2023-04-27T13:21:39.000Z,5847
2023-04-27T13:22:55.557Z,5267
2023-04-27T13:24:11.000Z,5113
2023-04-27T13:25:28.000Z,5930
2023-04-27T13:26:44.000Z,5138
2023-04-27T13:28:00.000Z,5614
2023-04-27T13:29:16.000Z,5928
2023-04-27T13:30:33.000Z,6358
2023-04-27T13:31:49.000Z,7384
2023-04-27T13:33:05.000Z,6499
2023-04-27T13:34:21.000Z,5746
2023-04-27T13:35:38.000Z,6268
2023-04-27T13:36:54.000Z,6240
2023-04-27T13:38:10.000Z,6527
2023-04-27T13:39:26.000Z,5512
2023-04-27T13:40:43.000Z,4961
2023-04-27T13:41:59.000Z,5718
2023-04-27T13:43:15.000Z,5988
2023-04-27T13:44:31.000Z,5779
2023-04-27T13:45:48.000Z,5552
2023-04-27T13:47:04.000Z,5666
2023-04-27T13:48:20.000Z,6385
2023-04-27T13:49:36.000Z,5481
2023-04-27T13:50:52.000Z,6406
2023-04-27T13:52:08.200Z,6188
2023-04-27T13:53:24.450Z,5954
2023-04-27T13:54:40.000Z,6108
2023-04-27T13:55:56.000Z,5485
2023-04-27T13:57:13.000Z,4985
2023-04-27T13:58:29.000Z,5984
2023-04-27T13:59:45.000Z,7054
2023-04-27T14:01:01.885Z,5944
2023-04-27T14:02:18.000Z,5230
2023-04-27T14:03:34.000Z,6691
2023-04-27T14:04:50.000Z,6305
2023-04-27T14:06:06.000Z,5993
2023-04-27T14:07:23.000Z,5207
2023-04-27T14:08:39.441Z,5969
2023-04-27T14:09:55.000Z,5195
2023-04-27T14:11:11.000Z,5904
2023-04-27T14:12:28.000Z,6446
2023-04-27T14:13:44.000Z,6424
2023-04-27T14:15:00.000Z,6665
2023-04-27T14:16:16.871Z,6588
2023-04-27T14:17:33.000Z,6656
2023-04-27T14:18:49.000Z,6036
2023-04-27T14:20:05.000Z,6088
2023-04-27T14:21:21.000Z,6222
2023-04-27T14:22:38.000Z,5334
2023-04-27T14:23:54.000Z,6044
2023-04-27T14:25:09.000Z,5611
2023-04-27T14:26:25.000Z,7080
2023-04-27T14:27:42.000Z,5330
2023-04-27T14:28:58.000Z,7170
2023-04-27T14:30:14.000Z,7529
2023-04-27T14:31:30.000Z,6826
2023-04-27T14:32:47.000Z,6427
2023-04-27T14:34:03.263Z,6365
2023-04-27T14:35:19.000Z,6650
2023-04-27T14:36:35.734Z,6596
2023-04-27T14:37:51.000Z,6786
2023-04-27T14:39:08.000Z,5971
2023-04-27T14:40:24.454Z,5698
2023-04-27T14:41:39.000Z,5989
2023-04-27T14:42:55.000Z,6161
2023-04-27T14:44:12.000Z,6251
2023-04-27T14:45:28.000Z,6139
2023-04-27T14:46:44.665Z,6133
2023-04-27T14:48:00.000Z,5880
2023-04-27T14:49:17.000Z,6318
2023-04-27T14:50:33.000Z,6629
2023-04-27T14:51:49.000Z,6546
2023-04-27T14:53:05.000Z,6402
2023-04-27T14:54:22.000Z,6160
2023-04-27T14:55:38.000Z,6310
2023-04-27T14:56:54.000Z,5832
2023-04-27T14:58:09.860Z,5985
2023-04-27T14:59:26.000Z,5935
2023-04-27T15:00:42.000Z,5508
2023-04-27T15:01:58.000Z,5840
2023-04-27T15:03:14.000Z,5371
2023-04-27T15:04:31.000Z,6222
2023-04-27T15:05:47.000Z,6203
2023-04-27T15:07:03.000Z,6459
2023-04-27T15:08:19.000Z,6645
2023-04-27T15:09:36.000Z,7006
2023-04-27T15:10:52.000Z,5981
2023-04-27T15:12:08.000Z,6817
2023-04-27T15:13:24.000Z,6786
2023-04-27T15:14:40.000Z,7036
2023-04-27T15:15:56.000Z,5957
2023-04-27T15:17:12.000Z,6272
2023-04-27T15:18:28.000Z,6220
2023-04-27T15:19:44.000Z,6642
2023-04-27T15:21:01.000Z,6521
2023-04-27T15:22:17.000Z,6796
2023-04-27T15:23:33.000Z,6743
2023-04-27T15:24:49.000Z,6902
2023-04-27T15:26:06.000Z,7183
2023-04-27T15:27:22.377Z,7205
2023-04-27T15:28:38.000Z,7409
2023-04-27T15:29:54.000Z,7257
2023-04-27T15:31:10.000Z,7164
2023-04-27T15:32:26.354Z,7201
2023-04-27T15:33:42.000Z,7002
2023-04-27T15:34:58.000Z,7186
2023-04-27T15:36:15.000Z,7179
2023-04-27T15:37:31.330Z,7452
2023-04-27T15:38:47.000Z,7793
2023-04-27T15:40:03.792Z,7895
2023-04-27T15:41:20.000Z,8161
2023-04-27T15:42:36.000Z,7638
2023-04-27T15:43:52.000Z,7860
2023-04-27T15:45:08.000Z,7479
2023-04-27T15:46:25.000Z,7531
2023-04-27T15:47:40.228Z,7436
2023-04-27T15:48:56.000Z,7558
2023-04-27T15:50:12.000Z,7776
2023-04-27T15:51:28.000Z,7689
2023-04-27T15:52:45.000Z,7750
2023-04-27T15:54:01.000Z,7416
2023-04-27T15:55:17.000Z,3182
2023-04-27T15:56:33.000Z,5397
2023-04-27T15:57:50.000Z,17902
2023-04-27T15:59:06.000Z,14627
2023-04-27T16:00:22.000Z,16744
2023-04-27T16:01:38.000Z,17341
2023-04-27T16:02:55.094Z,19865
2023-04-27T16:04:10.372Z,5015
2023-04-27T16:05:26.610Z,10765
2023-04-27T16:06:42.000Z,2612
2023-04-27T16:07:59.000Z,12385
2023-04-27T16:09:15.000Z,6264
2023-04-27T16:10:31.000Z,6038
2023-04-27T16:11:47.000Z,5194
2023-04-27T16:13:04.046Z,5090
2023-04-27T16:14:20.000Z,5113
2023-04-27T16:15:36.000Z,4005
2023-04-27T16:16:52.000Z,22690
2023-04-27T16:18:09.012Z,18549
2023-04-27T16:19:25.000Z,4902
2023-04-27T16:20:40.000Z,9597
2023-04-27T16:21:56.000Z,10339
2023-04-27T16:23:12.977Z,4560
2023-04-27T16:24:29.000Z,13790
2023-04-27T16:25:45.000Z,13198
2023-04-27T16:27:01.000Z,20487
2023-04-27T16:28:17.000Z,5309
2023-04-27T16:29:34.000Z,11845
2023-04-27T16:30:50.000Z,10939
2023-04-27T16:32:06.000Z,7322
2023-04-27T16:33:22.895Z,2551
2023-04-27T16:34:39.000Z,12695
2023-04-27T16:35:55.000Z,7787
2023-04-27T16:37:10.000Z,6746
2023-04-27T16:38:26.000Z,6230
2023-04-27T16:39:43.000Z,4656
2023-04-27T16:40:59.000Z,7754
2023-04-27T16:42:15.000Z,6613
2023-04-27T16:43:31.000Z,2844
2023-04-27T16:44:48.000Z,7596
2023-04-27T16:46:04.303Z,10521
2023-04-27T16:47:20.000Z,10463
2023-04-27T16:48:36.000Z,15283
2023-04-27T16:49:53.000Z,14065
2023-04-27T16:51:09.269Z,15166
2023-04-27T16:52:25.000Z,6999
2023-04-27T16:53:40.000Z,16649
2023-04-27T16:54:57.000Z,17030
2023-04-27T16:56:13.000Z,5332
2023-04-27T16:57:29.000Z,3314
2023-04-27T16:58:45.000Z,14665
2023-04-27T17:00:01.000Z,5727
2023-04-27T17:01:18.000Z,3863
2023-04-27T17:02:34.000Z,11304
2023-04-27T17:03:50.000Z,12572
2023-04-27T17:05:06.000Z,2504
2023-04-27T17:06:23.000Z,7782
2023-04-27T17:07:39.000Z,4884
2023-04-27T17:08:55.000Z,4238
2023-04-27T17:10:10.000Z,4657
2023-04-27T17:11:27.000Z,4429
2023-04-27T17:12:43.000Z,4206
2023-04-27T17:13:59.000Z,3501
2023-04-27T17:15:15.000Z,4127
2023-04-27T17:16:32.079Z,3603
2023-04-27T17:17:48.000Z,3538